Wetterdaten: aktuell Freitag, 28.01.2022 19:40
Datum Zeit Temp. A. Feuchte A. Luftdruck Regen Wind Richtung Richtung Taupunkt Windchill Windben Empfang
28.01.2022 19:40 5,2 C 85 % 1029,8 hPa 0,0 l/m 6,6 km/h (2 Bft) S-SW 203 2,9 C 3,8 C 15,2 km/h (3 Bft) 100 %
28.01.2022 19:30 5,3 C 84 % 1029,9 hPa 0,0 l/m 6,4 km/h (2 Bft) S-SW 196 2,8 C 3,9 C 13,0 km/h (3 Bft) 100 %
28.01.2022 19:20 5,4 C 84 % 1030,2 hPa 0,0 l/m 8,1 km/h (2 Bft) S-SW 198 2,9 C 3,6 C 15,2 km/h (3 Bft) 100 %
28.01.2022 19:10 5,3 C 84 % 1030,3 hPa 0,0 l/m 7,5 km/h (2 Bft) SW 236 2,8 C 3,6 C 13,0 km/h (3 Bft) 100 %
28.01.2022 19:00 5,3 C 84 % 1030,6 hPa 0,0 l/m 7,7 km/h (2 Bft) SW 233 2,8 C 3,6 C 15,2 km/h (3 Bft) 100 %
28.01.2022 18:50 5,3 C 84 % 1030,7 hPa 0,0 l/m 7,7 km/h (2 Bft) S-SW 196 2,8 C 3,6 C 13,0 km/h (3 Bft) 100 %
28.01.2022 18:40 5,2 C 85 % 1031,0 hPa 0,0 l/m 7,0 km/h (2 Bft) S-SW 212 2,9 C 3,6 C 15,2 km/h (3 Bft) 100 %
28.01.2022 18:30 5,2 C 84 % 1031,0 hPa 0,0 l/m 4,7 km/h (1 Bft) S-SW 211 2,7 C 4,4 C 10,9 km/h (2 Bft) 100 %
28.01.2022 18:20 5,3 C 84 % 1031,0 hPa 0,0 l/m 5,5 km/h (1 Bft) S-SW 202 2,8 C 4,2 C 10,9 km/h (2 Bft) 100 %
28.01.2022 18:10 5,3 C 84 % 1031,1 hPa 0,0 l/m 4,6 km/h (1 Bft) S-SW 207 2,8 C 4,6 C 8,7 km/h (2 Bft) 99 %
28.01.2022 18:00 5,4 C 83 % 1031,2 hPa 0,0 l/m 4,0 km/h (1 Bft) S-SW 207 2,7 C 5,4 C 8,7 km/h (2 Bft) 99 %
28.01.2022 17:50 5,6 C 83 % 1031,4 hPa 0,0 l/m 4,1 km/h (1 Bft) S-SW 208 2,9 C 5,6 C 8,7 km/h (2 Bft) 100 %
28.01.2022 17:40 5,6 C 82 % 1031,5 hPa 0,0 l/m 4,2 km/h (1 Bft) SW 221 2,8 C 5,6 C 8,7 km/h (2 Bft) 100 %
28.01.2022 17:30 5,7 C 82 % 1031,5 hPa 0,0 l/m 5,2 km/h (1 Bft) SW 220 2,9 C 4,8 C 10,9 km/h (2 Bft) 100 %
28.01.2022 17:20 5,7 C 81 % 1031,5 hPa 0,0 l/m 5,5 km/h (1 Bft) S-SW 194 2,7 C 4,7 C 13,0 km/h (3 Bft) 100 %
28.01.2022 17:10 5,8 C 80 % 1031,7 hPa 0,0 l/m 6,1 km/h (2 Bft) S-SW 194 2,6 C 4,6 C 10,9 km/h (2 Bft) 99 %
28.01.2022 17:00 6,0 C 79 % 1031,8 hPa 0,0 l/m 4,2 km/h (1 Bft) S-SW 207 2,6 C 6,0 C 8,7 km/h (2 Bft) 99 %
28.01.2022 16:50 6,2 C 78 % 1031,8 hPa 0,0 l/m 4,2 km/h (1 Bft) W-SW 247 2,7 C 6,2 C 13,0 km/h (3 Bft) 99 %
28.01.2022 16:40 6,3 C 78 % 1032,0 hPa 0,0 l/m 5,2 km/h (1 Bft) S 185 2,8 C 5,5 C 10,9 km/h (2 Bft) 100 %
28.01.2022 16:30 6,4 C 77 % 1032,0 hPa 0,0 l/m 5,7 km/h (1 Bft) SW 214 2,7 C 5,4 C 17,4 km/h (3 Bft) 98 %
28.01.2022 16:20 6,6 C 76 % 1031,9 hPa 0,0 l/m 6,5 km/h (2 Bft) SW 236 2,7 C 5,4 C 17,4 km/h (3 Bft) 100 %
28.01.2022 16:10 6,6 C 75 % 1032,0 hPa 0,0 l/m 6,3 km/h (2 Bft) SW 227 2,5 C 5,5 C 17,4 km/h (3 Bft) 100 %
28.01.2022 16:00 6,7 C 75 % 1032,0 hPa 0,0 l/m 3,8 km/h (1 Bft) SW 227 2,6 C 6,7 C 19,6 km/h (3 Bft) 99 %
28.01.2022 15:50 6,9 C 74 % 1032,0 hPa 0,0 l/m 4,2 km/h (1 Bft) W 261 2,6 C 6,9 C 15,2 km/h (3 Bft) 100 %
28.01.2022 15:40 7,2 C 73 % 1032,1 hPa 0,0 l/m 2,9 km/h (1 Bft) S-SW 211 2,7 C 7,2 C 8,7 km/h (2 Bft) 100 %
28.01.2022 15:30 7,3 C 72 % 1032,0 hPa 0,0 l/m 2,2 km/h (1 Bft) W-NW 283 2,6 C 7,3 C 8,7 km/h (2 Bft) 100 %
28.01.2022 15:20 7,2 C 72 % 1032,0 hPa 0,0 l/m 4,7 km/h (1 Bft) N-NO 25 2,5 C 6,7 C 21,7 km/h (4 Bft) 100 %
28.01.2022 15:10 7,1 C 72 % 1031,9 hPa 0,0 l/m 7,2 km/h (2 Bft) NW 314 2,4 C 5,8 C 26,1 km/h (4 Bft) 99 %
28.01.2022 15:00 7,3 C 72 % 1031,9 hPa 0,0 l/m 6,6 km/h (2 Bft) N-NW 336 2,6 C 6,2 C 13,0 km/h (3 Bft) 98 %
28.01.2022 14:50 7,2 C 73 % 1031,8 hPa 0,0 l/m 3,6 km/h (1 Bft) W-SW 245 2,7 C 7,2 C 15,2 km/h (3 Bft) 99 %
28.01.2022 14:40 7,1 C 72 % 1031,9 hPa 0,0 l/m 6,2 km/h (2 Bft) W-SW 250 2,4 C 6,1 C 19,6 km/h (3 Bft) 100 %
28.01.2022 14:30 7,4 C 70 % 1031,9 hPa 0,0 l/m 7,1 km/h (2 Bft) NW 323 2,3 C 6,2 C 19,6 km/h (3 Bft) 100 %
28.01.2022 14:20 7,7 C 71 % 1031,9 hPa 0,0 l/m 6,0 km/h (2 Bft) W 274 2,8 C 6,8 C 17,4 km/h (3 Bft) 100 %
28.01.2022 14:10 7,5 C 72 % 1032,1 hPa 0,0 l/m 7,4 km/h (2 Bft) W-SW 246 2,8 C 6,2 C 19,6 km/h (3 Bft) 100 %
28.01.2022 14:00 7,6 C 73 % 1032,2 hPa 0,0 l/m 5,2 km/h (1 Bft) W 261 3,1 C 7,0 C 19,6 km/h (3 Bft) 100 %
28.01.2022 13:50 7,3 C 75 % 1032,3 hPa 0,0 l/m 2,4 km/h (1 Bft) S-SW 207 3,2 C 7,3 C 8,7 km/h (2 Bft) 99 %
28.01.2022 13:40 7,2 C 74 % 1032,3 hPa 0,0 l/m 5,6 km/h (1 Bft) N 11 2,9 C 6,4 C 17,4 km/h (3 Bft) 100 %
28.01.2022 13:30 7,3 C 74 % 1032,4 hPa 0,0 l/m 3,8 km/h (1 Bft) W-NW 287 3,0 C 7,3 C 15,2 km/h (3 Bft) 100 %
28.01.2022 13:20 7,3 C 74 % 1032,6 hPa 0,0 l/m 6,3 km/h (2 Bft) W-NW 289 3,0 C 6,3 C 19,6 km/h (3 Bft) 99 %
28.01.2022 13:10 7,6 C 74 % 1032,6 hPa 0,0 l/m 3,2 km/h (1 Bft) W 261 3,3 C 7,6 C 17,4 km/h (3 Bft) 100 %
28.01.2022 13:00 7,5 C 74 % 1032,6 hPa 0,0 l/m 3,9 km/h (1 Bft) NW 323 3,2 C 7,5 C 15,2 km/h (3 Bft) 99 %
28.01.2022 12:50 7,4 C 75 % 1032,4 hPa 0,0 l/m 5,3 km/h (1 Bft) W 263 3,3 C 6,7 C 17,4 km/h (3 Bft) 99 %
28.01.2022 12:40 7,3 C 76 % 1032,6 hPa 0,0 l/m 4,9 km/h (1 Bft) W 277 3,4 C 6,7 C 19,6 km/h (3 Bft) 99 %
28.01.2022 12:30 6,9 C 76 % 1032,7 hPa 0,0 l/m 5,5 km/h (1 Bft) O-SO 115 3,0 C 6,1 C 17,4 km/h (3 Bft) 100 %
28.01.2022 12:20 6,8 C 76 % 1032,9 hPa 0,0 l/m 8,1 km/h (2 Bft) W 277 2,9 C 5,2 C 23,9 km/h (4 Bft) 100 %
28.01.2022 12:10 6,8 C 75 % 1032,7 hPa 0,0 l/m 5,9 km/h (2 Bft) S-SW 207 2,7 C 5,8 C 17,4 km/h (3 Bft) 100 %
28.01.2022 12:00 6,8 C 76 % 1032,9 hPa 0,0 l/m 5,8 km/h (2 Bft) W-NW 284 2,9 C 5,9 C 21,7 km/h (4 Bft) 98 %
28.01.2022 11:50 6,7 C 78 % 1033,0 hPa 0,0 l/m 3,8 km/h (1 Bft) W-NW 300 3,1 C 6,7 C 10,9 km/h (2 Bft) 100 %
28.01.2022 11:40 6,3 C 80 % 1032,8 hPa 0,0 l/m 6,4 km/h (2 Bft) W 277 3,1 C 5,1 C 17,4 km/h (3 Bft) 98 %
28.01.2022 11:30 6,1 C 79 % 1032,6 hPa 0,0 l/m 4,9 km/h (1 Bft) W-NW 298 2,7 C 5,4 C 19,6 km/h (3 Bft) 100 %
28.01.2022 11:20 5,9 C 79 % 1032,7 hPa 0,0 l/m 5,5 km/h (1 Bft) W-NW 292 2,5 C 4,9 C 19,6 km/h (3 Bft) 98 %
28.01.2022 11:10 5,8 C 80 % 1032,5 hPa 0,0 l/m 6,4 km/h (2 Bft) S 177 2,6 C 4,5 C 19,6 km/h (3 Bft) 100 %
28.01.2022 11:00 5,6 C 80 % 1032,6 hPa 0,0 l/m 6,3 km/h (2 Bft) NW 304 2,4 C 4,3 C 19,6 km/h (3 Bft) 99 %
28.01.2022 10:50 5,5 C 81 % 1032,5 hPa 0,0 l/m 6,2 km/h (2 Bft) NW 311 2,5 C 4,2 C 19,6 km/h (3 Bft) 100 %
28.01.2022 10:40 5,2 C 81 % 1032,3 hPa 0,0 l/m 5,4 km/h (1 Bft) W 269 2,2 C 4,2 C 17,4 km/h (3 Bft) 100 %
28.01.2022 10:30 5,0 C 81 % 1032,1 hPa 0,0 l/m 5,1 km/h (1 Bft) S-SW 204 2,0 C 4,0 C 17,4 km/h (3 Bft) 100 %
28.01.2022 10:20 4,9 C 81 % 1031,9 hPa 0,0 l/m 5,6 km/h (1 Bft) W 260 1,9 C 3,7 C 13,0 km/h (3 Bft) 100 %
28.01.2022 10:10 5,0 C 81 % 1032,0 hPa 0,0 l/m 3,9 km/h (1 Bft) S-SW 192 2,0 C 5,0 C 15,2 km/h (3 Bft) 100 %
28.01.2022 10:00 4,9 C 81 % 1031,7 hPa 0,0 l/m 3,5 km/h (1 Bft) W-SW 247 1,9 C 4,9 C 13,0 km/h (3 Bft) 99 %
28.01.2022 09:50 4,9 C 82 % 1031,6 hPa 0,0 l/m 3,1 km/h (1 Bft) S-SW 213 2,1 C 4,9 C 10,9 km/h (2 Bft) 99 %
28.01.2022 09:40 4,8 C 81 % 1031,7 hPa 0,0 l/m 3,0 km/h (1 Bft) W-SW 242 1,8 C 4,8 C 6,5 km/h (2 Bft) 100 %
28.01.2022 09:30 4,9 C 81 % 1031,5 hPa 0,0 l/m 4,3 km/h (1 Bft) SW 230 1,9 C 4,9 C 15,2 km/h (3 Bft) 100 %
28.01.2022 09:20 5,1 C 81 % 1031,4 hPa 0,0 l/m 4,8 km/h (1 Bft) NW 325 2,1 C 4,3 C 15,2 km/h (3 Bft) 99 %
28.01.2022 09:10 5,0 C 82 % 1031,2 hPa 0,0 l/m 4,3 km/h (1 Bft) W-SW 244 2,2 C 5,0 C 15,2 km/h (3 Bft) 99 %
28.01.2022 09:00 4,9 C 83 % 1030,9 hPa 0,0 l/m 4,8 km/h (1 Bft) NW 315 2,3 C 4,0 C 15,2 km/h (3 Bft) 99 %
28.01.2022 08:50 4,9 C 83 % 1030,9 hPa 0,0 l/m 4,5 km/h (1 Bft) N-NW 327 2,3 C 4,9 C 10,9 km/h (2 Bft) 99 %
28.01.2022 08:40 4,9 C 83 % 1030,8 hPa 0,0 l/m 7,1 km/h (2 Bft) NW 309 2,3 C 3,3 C 21,7 km/h (4 Bft) 99 %
28.01.2022 08:30 4,8 C 84 % 1030,7 hPa 0,0 l/m 7,5 km/h (2 Bft) N 349 2,3 C 3,0 C 21,7 km/h (4 Bft) 99 %
28.01.2022 08:20 4,8 C 82 % 1030,6 hPa 0,0 l/m 8,3 km/h (2 Bft) NW 322 2,0 C 2,8 C 21,7 km/h (4 Bft) 99 %
28.01.2022 08:10 4,9 C 82 % 1030,5 hPa 0,0 l/m 11,0 km/h (2 Bft) NW 315 2,1 C 2,3 C 32,6 km/h (5 Bft) 98 %
28.01.2022 08:00 4,9 C 82 % 1030,3 hPa 0,0 l/m 9,1 km/h (2 Bft) NW 309 2,1 C 2,7 C 23,9 km/h (4 Bft) 100 %
28.01.2022 07:50 4,9 C 81 % 1030,2 hPa 0,0 l/m 8,2 km/h (2 Bft) W-NW 296 1,9 C 3,0 C 19,6 km/h (3 Bft) 99 %
28.01.2022 07:40 4,9 C 80 % 1029,9 hPa 0,0 l/m 4,3 km/h (1 Bft) W-NW 290 1,7 C 4,9 C 19,6 km/h (3 Bft) 100 %
28.01.2022 07:30 5,0 C 80 % 1029,7 hPa 0,0 l/m 5,2 km/h (1 Bft) W-NW 302 1,8 C 4,0 C 19,6 km/h (3 Bft) 100 %
28.01.2022 07:20 5,1 C 79 % 1029,6 hPa 0,0 l/m 4,9 km/h (1 Bft) NW 310 1,8 C 4,2 C 17,4 km/h (3 Bft) 100 %
28.01.2022 07:10 5,1 C 80 % 1029,5 hPa 0,0 l/m 4,7 km/h (1 Bft) N-NW 335 1,9 C 4,3 C 17,4 km/h (3 Bft) 99 %
28.01.2022 07:00 5,2 C 79 % 1029,4 hPa 0,0 l/m 4,3 km/h (1 Bft) NW 319 1,9 C 5,2 C 15,2 km/h (3 Bft) 99 %
28.01.2022 06:50 5,3 C 79 % 1029,3 hPa 0,0 l/m 5,9 km/h (2 Bft) W 263 2,0 C 4,1 C 23,9 km/h (4 Bft) 99 %
28.01.2022 06:40 5,3 C 79 % 1029,3 hPa 0,0 l/m 10,0 km/h (2 Bft) W-NW 283 2,0 C 3,0 C 30,4 km/h (5 Bft) 99 %
28.01.2022 06:30 5,2 C 80 % 1029,2 hPa 0,0 l/m 6,5 km/h (2 Bft) W-NW 299 2,0 C 3,8 C 19,6 km/h (3 Bft) 99 %
28.01.2022 06:20 5,2 C 80 % 1028,8 hPa 0,0 l/m 9,1 km/h (2 Bft) W-SW 254 2,0 C 3,1 C 26,1 km/h (4 Bft) 99 %
28.01.2022 06:10 5,0 C 82 % 1028,5 hPa 0,0 l/m 6,4 km/h (2 Bft) W-NW 300 2,2 C 3,6 C 21,7 km/h (4 Bft) 99 %
28.01.2022 06:00 5,0 C 83 % 1028,5 hPa 0,0 l/m 6,9 km/h (2 Bft) W-NW 302 2,4 C 3,4 C 23,9 km/h (4 Bft) 99 %
28.01.2022 05:50 5,0 C 85 % 1028,4 hPa 0,0 l/m 6,8 km/h (2 Bft) NW 320 2,7 C 3,5 C 19,6 km/h (3 Bft) 100 %
28.01.2022 05:40 4,9 C 86 % 1028,3 hPa 0,0 l/m 5,3 km/h (1 Bft) N-NW 334 2,8 C 3,9 C 19,6 km/h (3 Bft) 100 %
28.01.2022 05:30 4,8 C 86 % 1028,1 hPa 0,0 l/m 5,2 km/h (1 Bft) S-SO 167 2,7 C 3,8 C 15,2 km/h (3 Bft) 100 %
28.01.2022 05:20 4,9 C 86 % 1028,2 hPa 0,0 l/m 7,8 km/h (2 Bft) W-NW 295 2,8 C 3,1 C 30,4 km/h (5 Bft) 100 %
28.01.2022 05:10 4,9 C 85 % 1028,1 hPa 0,0 l/m 11,4 km/h (2 Bft) W-NW 290 2,6 C 2,3 C 32,6 km/h (5 Bft) 99 %
28.01.2022 05:00 4,9 C 85 % 1027,9 hPa 0,0 l/m 11,8 km/h (2 Bft) NW 322 2,6 C 2,2 C 32,6 km/h (5 Bft) 99 %
28.01.2022 04:50 4,9 C 85 % 1027,8 hPa 0,0 l/m 13,2 km/h (3 Bft) W 275 2,6 C 1,9 C 36,9 km/h (5 Bft) 100 %
28.01.2022 04:40 4,8 C 86 % 1027,7 hPa 0,0 l/m 17,6 km/h (3 Bft) W 276 2,7 C 1,1 C 54,3 km/h (7 Bft) 100 %
28.01.2022 04:30 4,7 C 87 % 1027,6 hPa 0,0 l/m 8,7 km/h (2 Bft) N-NW 332 2,7 C 2,6 C 23,9 km/h (4 Bft) 98 %
28.01.2022 04:20 4,7 C 87 % 1027,2 hPa 0,0 l/m 12,0 km/h (2 Bft) NW 316 2,7 C 1,9 C 28,2 km/h (4 Bft) 100 %
28.01.2022 04:10 4,6 C 87 % 1027,3 hPa 0,0 l/m 9,8 km/h (2 Bft) N-NW 331 2,6 C 2,2 C 26,1 km/h (4 Bft) 100 %
28.01.2022 04:00 4,4 C 87 % 1027,3 hPa 0,0 l/m 6,8 km/h (2 Bft) NW 315 2,4 C 2,8 C 23,9 km/h (4 Bft) 99 %
28.01.2022 03:50 4,3 C 88 % 1027,0 hPa 0,0 l/m 7,1 km/h (2 Bft) NW 321 2,5 C 2,6 C 30,4 km/h (5 Bft) 99 %
28.01.2022 03:40 4,2 C 89 % 1027,0 hPa 0,0 l/m 7,8 km/h (2 Bft) W-NW 298 2,6 C 2,2 C 23,9 km/h (4 Bft) 100 %
28.01.2022 03:30 4,2 C 89 % 1026,9 hPa 0,0 l/m 6,1 km/h (2 Bft) W-NW 300 2,6 C 2,8 C 19,6 km/h (3 Bft) 99 %
28.01.2022 03:20 4,2 C 89 % 1026,8 hPa 0,0 l/m 9,7 km/h (2 Bft) NW 322 2,6 C 1,8 C 23,9 km/h (4 Bft) 99 %
28.01.2022 03:10 4,3 C 90 % 1026,5 hPa 0,0 l/m 8,8 km/h (2 Bft) N-NO 17 2,8 C 2,1 C 23,9 km/h (4 Bft) 100 %
28.01.2022 03:00 4,3 C 90 % 1026,4 hPa 0,2 l/m 11,8 km/h (2 Bft) N-NW 333 2,8 C 1,4 C 34,8 km/h (5 Bft) 99 %
28.01.2022 02:50 4,3 C 90 % 1026,2 hPa 0,0 l/m 5,4 km/h (1 Bft) W 281 2,8 C 3,1 C 17,4 km/h (3 Bft) 99 %
28.01.2022 02:40 4,3 C 89 % 1026,0 hPa 0,0 l/m 6,0 km/h (2 Bft) N-NW 331 2,7 C 2,9 C 19,6 km/h (3 Bft) 99 %
28.01.2022 02:30 4,6 C 87 % 1026,0 hPa 0,6 l/m 11,5 km/h (2 Bft) S-SW 205 2,6 C 1,9 C 32,6 km/h (5 Bft) 100 %
28.01.2022 02:20 4,7 C 86 % 1025,8 hPa 0,0 l/m 6,7 km/h (2 Bft) N 355 2,6 C 3,2 C 23,9 km/h (4 Bft) 99 %
28.01.2022 02:10 4,7 C 86 % 1025,6 hPa 0,0 l/m 12,3 km/h (3 Bft) W-NW 292 2,6 C 1,8 C 30,4 km/h (5 Bft) 100 %
28.01.2022 02:00 4,7 C 86 % 1025,5 hPa 0,0 l/m 9,4 km/h (2 Bft) NW 311 2,6 C 2,4 C 36,9 km/h (5 Bft) 100 %
28.01.2022 01:50 4,6 C 85 % 1025,4 hPa 0,0 l/m 5,6 km/h (1 Bft) NW 310 2,3 C 3,4 C 21,7 km/h (4 Bft) 100 %
28.01.2022 01:40 4,5 C 85 % 1025,1 hPa 0,0 l/m 7,5 km/h (2 Bft) W 273 2,2 C 2,7 C 23,9 km/h (4 Bft) 100 %
28.01.2022 01:30 4,6 C 86 % 1025,1 hPa 0,0 l/m 6,8 km/h (2 Bft) NW 314 2,5 C 3,0 C 21,7 km/h (4 Bft) 99 %
28.01.2022 01:20 4,6 C 86 % 1024,9 hPa 0,0 l/m 6,3 km/h (2 Bft) W 263 2,5 C 3,2 C 28,2 km/h (4 Bft) 100 %
28.01.2022 01:10 4,5 C 87 % 1024,8 hPa 0,0 l/m 8,9 km/h (2 Bft) W-NW 294 2,5 C 2,3 C 26,1 km/h (4 Bft) 100 %
28.01.2022 01:00 4,6 C 87 % 1024,7 hPa 0,0 l/m 7,2 km/h (2 Bft) NW 325 2,6 C 2,9 C 19,6 km/h (3 Bft) 99 %
28.01.2022 00:50 4,6 C 87 % 1024,5 hPa 0,0 l/m 8,5 km/h (2 Bft) W-NW 296 2,6 C 2,5 C 23,9 km/h (4 Bft) 100 %
28.01.2022 00:40 4,7 C 87 % 1024,2 hPa 0,0 l/m 6,3 km/h (2 Bft) W-SW 254 2,7 C 3,3 C 23,9 km/h (4 Bft) 99 %
28.01.2022 00:30 4,8 C 86 % 1024,1 hPa 0,0 l/m 9,2 km/h (2 Bft) W 268 2,7 C 2,6 C 19,6 km/h (3 Bft) 99 %
28.01.2022 00:20 4,9 C 86 % 1024,1 hPa 0,0 l/m 9,6 km/h (2 Bft) W-NW 294 2,8 C 2,6 C 26,1 km/h (4 Bft) 99 %
28.01.2022 00:10 5,1 C 86 % 1024,0 hPa 0,0 l/m 10,7 km/h (2 Bft) NW 304 3,0 C 2,6 C 30,4 km/h (5 Bft) 98 %
28.01.2022 00:00 5,1 C 86 % 1023,8 hPa 0,0 l/m 9,9 km/h (2 Bft) N-NW 344 3,0 C 2,8 C 28,2 km/h (4 Bft) 99 %
27.01.2022 23:50 5,1 C 86 % 1023,7 hPa 0,0 l/m 6,5 km/h (2 Bft) W-NW 294 3,0 C 3,7 C 19,6 km/h (3 Bft) 98 %
27.01.2022 23:40 5,1 C 85 % 1023,7 hPa 0,0 l/m 7,7 km/h (2 Bft) W-SW 242 2,8 C 3,3 C 30,4 km/h (5 Bft) 99 %
27.01.2022 23:30 5,1 C 84 % 1023,4 hPa 0,0 l/m 14,2 km/h (3 Bft) W-SW 257 2,6 C 2,0 C 39,1 km/h (6 Bft) 99 %
27.01.2022 23:20 5,1 C 85 % 1023,3 hPa 0,0 l/m 14,6 km/h (3 Bft) NW 319 2,8 C 1,9 C 36,9 km/h (5 Bft) 99 %
27.01.2022 23:10 5,2 C 86 % 1023,2 hPa 0,0 l/m 9,4 km/h (2 Bft) N-NW 334 3,1 C 3,0 C 34,8 km/h (5 Bft) 99 %
27.01.2022 23:00 5,1 C 86 % 1023,2 hPa 0,0 l/m 10,2 km/h (2 Bft) NW 307 3,0 C 2,7 C 30,4 km/h (5 Bft) 100 %
27.01.2022 22:50 5,1 C 87 % 1023,2 hPa 0,0 l/m 6,5 km/h (2 Bft) N-NW 332 3,1 C 3,7 C 23,9 km/h (4 Bft) 100 %
27.01.2022 22:40 5,2 C 87 % 1023,0 hPa 0,0 l/m 6,5 km/h (2 Bft) W-SW 257 3,2 C 3,8 C 19,6 km/h (3 Bft) 98 %
27.01.2022 22:30 5,2 C 86 % 1022,9 hPa 0,0 l/m 8,0 km/h (2 Bft) W 268 3,1 C 3,4 C 23,9 km/h (4 Bft) 98 %
27.01.2022 22:20 5,3 C 86 % 1022,7 hPa 0,0 l/m 10,0 km/h (2 Bft) W-NW 291 3,2 C 3,0 C 36,9 km/h (5 Bft) 99 %
27.01.2022 22:10 5,4 C 85 % 1022,7 hPa 0,0 l/m 14,9 km/h (3 Bft) O-SO 119 3,1 C 2,3 C 36,9 km/h (5 Bft) 100 %
27.01.2022 22:00 5,6 C 88 % 1022,7 hPa 0,0 l/m 17,6 km/h (3 Bft) NO 37 3,8 C 2,1 C 52,1 km/h (7 Bft) 99 %
27.01.2022 21:50 5,4 C 88 % 1022,2 hPa 0,0 l/m 5,5 km/h (1 Bft) W 278 3,6 C 4,4 C 17,4 km/h (3 Bft) 99 %
27.01.2022 21:40 5,4 C 86 % 1022,1 hPa 0,0 l/m 7,7 km/h (2 Bft) W-SW 251 3,3 C 3,7 C 19,6 km/h (3 Bft) 99 %
27.01.2022 21:30 5,4 C 86 % 1022,2 hPa 0,0 l/m 8,1 km/h (2 Bft) W-SW 250 3,3 C 3,6 C 21,7 km/h (4 Bft) 100 %
27.01.2022 21:20 5,6 C 85 % 1022,2 hPa 0,0 l/m 8,9 km/h (2 Bft) W 275 3,3 C 3,6 C 30,4 km/h (5 Bft) 99 %
27.01.2022 21:10 5,8 C 83 % 1022,1 hPa 0,0 l/m 12,5 km/h (3 Bft) NW 311 3,1 C 3,1 C 32,6 km/h (5 Bft) 99 %
27.01.2022 21:00 6,1 C 83 % 1021,9 hPa 0,0 l/m 13,5 km/h (3 Bft) W 261 3,4 C 3,3 C 36,9 km/h (5 Bft) 99 %
27.01.2022 20:50 6,3 C 86 % 1021,7 hPa 0,0 l/m 10,7 km/h (2 Bft) W-NW 288 4,1 C 4,1 C 39,1 km/h (6 Bft) 99 %
27.01.2022 20:40 6,4 C 85 % 1021,6 hPa 0,0 l/m 12,1 km/h (2 Bft) W-NW 296 4,1 C 3,9 C 41,3 km/h (6 Bft) 100 %
27.01.2022 20:30 6,7 C 85 % 1021,6 hPa 0,0 l/m 14,5 km/h (3 Bft) W-NW 289 4,4 C 3,9 C 34,8 km/h (5 Bft) 98 %
27.01.2022 20:20 6,7 C 85 % 1021,4 hPa 0,0 l/m 10,1 km/h (2 Bft) NW 306 4,4 C 4,7 C 36,9 km/h (5 Bft) 99 %
27.01.2022 20:10 6,7 C 84 % 1021,3 hPa 0,0 l/m 8,9 km/h (2 Bft) S-SW 207 4,2 C 4,9 C 26,1 km/h (4 Bft) 99 %
27.01.2022 20:00 6,7 C 84 % 1021,3 hPa 0,0 l/m 10,3 km/h (2 Bft) W 273 4,2 C 4,6 C 30,4 km/h (5 Bft) 100 %
_ Min-Zeit 03:20 14:30 20:00 - 15:30 - - 07:40 04:40 09:40 15:00
Minimum _ 4,2 C 70 % 1021,3 hPa - 2,2 km/h (1 Bft) - - 1,7 C 1,1 C 6,5 km/h (2 Bft) 98 %
_ Max-Zeit 14:20 02:50 11:50 02:30 22:00 - - 20:20 13:10 04:40 20:00
Maximum _ 7,7 C 90 % 1033,0 hPa 0,6 l/m 17,6 km/h
NO (3 Bft)
- - 4,4 C 7,6 C 54,3 km/h
NW (7 Bft)
100 %
Durchschnitt _ 5,6 C 82 % 1028,1 hPa #0,8 l/m 7,4 km/h (2 Bft) NW - 2,8 C 4,2 C 22,2 km/h (4 Bft) 99 %